sensor_id;sensor_type;location;lat;lon;timestamp;pressure;altitude;pressure_sealevel;temperature;humidity
16525;BME280;8375;33.594;-117.718;2023-09-07T00:00:24;100006.94;;;26.86;53.73
16525;BME280;8375;33.594;-117.718;2023-09-07T00:02:55;100005.75;;;26.82;54.44
16525;BME280;8375;33.594;-117.718;2023-09-07T00:05:23;100007.63;;;26.82;54.38
16525;BME280;8375;33.594;-117.718;2023-09-07T00:07:52;100004.38;;;26.79;54.52
16525;BME280;8375;33.594;-117.718;2023-09-07T00:10:22;100011.88;;;26.59;55.23
16525;BME280;8375;33.594;-117.718;2023-09-07T00:12:52;100010.91;;;26.41;55.63
16525;BME280;8375;33.594;-117.718;2023-09-07T00:15:21;100015.69;;;26.20;56.62
16525;BME280;8375;33.594;-117.718;2023-09-07T00:17:55;100016.09;;;26.05;57.24
16525;BME280;8375;33.594;-117.718;2023-09-07T00:20:24;100013.94;;;25.96;57.63
16525;BME280;8375;33.594;-117.718;2023-09-07T00:22:52;100015.44;;;25.91;58.31
16525;BME280;8375;33.594;-117.718;2023-09-07T00:25:21;100020.84;;;25.85;58.53
16525;BME280;8375;33.594;-117.718;2023-09-07T00:27:50;100021.66;;;25.85;59.01
16525;BME280;8375;33.594;-117.718;2023-09-07T00:30:19;100023.56;;;25.78;59.38
16525;BME280;8375;33.594;-117.718;2023-09-07T00:32:48;100024.72;;;25.70;59.41
16525;BME280;8375;33.594;-117.718;2023-09-07T00:35:19;100018.81;;;25.68;60.16
16525;BME280;8375;33.594;-117.718;2023-09-07T00:37:48;100010.91;;;25.61;60.20
16525;BME280;8375;33.594;-117.718;2023-09-07T00:40:18;100008.47;;;25.60;60.22
16525;BME280;8375;33.594;-117.718;2023-09-07T00:42:47;100012.03;;;25.54;60.48
16525;BME280;8375;33.594;-117.718;2023-09-07T00:45:15;100006.44;;;25.37;61.36
16525;BME280;8375;33.594;-117.718;2023-09-07T00:47:45;100010.47;;;25.46;61.67
16525;BME280;8375;33.594;-117.718;2023-09-07T00:50:14;100009.84;;;25.44;61.87
16525;BME280;8375;33.594;-117.718;2023-09-07T00:52:45;100008.59;;;25.28;62.07
16525;BME280;8375;33.594;-117.718;2023-09-07T00:55:15;100012.78;;;25.17;62.57
16525;BME280;8375;33.594;-117.718;2023-09-07T00:57:45;100009.00;;;25.06;63.30
16525;BME280;8375;33.594;-117.718;2023-09-07T01:00:14;100003.69;;;25.06;63.19
16525;BME280;8375;33.594;-117.718;2023-09-07T01:02:43;99998.81;;;25.03;63.05
16525;BME280;8375;33.594;-117.718;2023-09-07T01:05:12;100002.13;;;24.98;63.58
16525;BME280;8375;33.594;-117.718;2023-09-07T01:07:45;100000.19;;;24.87;63.66
16525;BME280;8375;33.594;-117.718;2023-09-07T01:10:15;100006.53;;;24.86;63.25
16525;BME280;8375;33.594;-117.718;2023-09-07T01:12:45;100005.59;;;24.73;64.17
16525;BME280;8375;33.594;-117.718;2023-09-07T01:15:13;100000.31;;;24.67;64.52
16525;BME280;8375;33.594;-117.718;2023-09-07T01:17:43;100004.81;;;24.66;65.04
16525;BME280;8375;33.594;-117.718;2023-09-07T01:20:14;99997.09;;;24.65;65.17
16525;BME280;8375;33.594;-117.718;2023-09-07T01:22:45;99991.81;;;24.58;65.98
16525;BME280;8375;33.594;-117.718;2023-09-07T01:25:14;99996.31;;;24.57;65.63
16525;BME280;8375;33.594;-117.718;2023-09-07T01:27:44;100003.88;;;24.54;65.80
16525;BME280;8375;33.594;-117.718;2023-09-07T01:30:14;100004.16;;;24.45;66.32
16525;BME280;8375;33.594;-117.718;2023-09-07T01:32:42;100009.09;;;24.35;66.54
16525;BME280;8375;33.594;-117.718;2023-09-07T01:35:11;100011.00;;;24.28;66.84
16525;BME280;8375;33.594;-117.718;2023-09-07T01:37:45;100006.72;;;24.27;67.54
16525;BME280;8375;33.594;-117.718;2023-09-07T01:40:14;100013.78;;;24.08;68.09
16525;BME280;8375;33.594;-117.718;2023-09-07T01:42:43;100019.09;;;24.01;68.58
16525;BME280;8375;33.594;-117.718;2023-09-07T01:45:11;100011.78;;;23.90;69.03
16525;BME280;8375;33.594;-117.718;2023-09-07T01:47:40;100017.72;;;23.78;69.76
16525;BME280;8375;33.594;-117.718;2023-09-07T01:50:09;100014.84;;;23.80;69.78
16525;BME280;8375;33.594;-117.718;2023-09-07T01:52:40;100022.81;;;23.80;70.05
16525;BME280;8375;33.594;-117.718;2023-09-07T01:55:10;100017.56;;;23.66;70.67
16525;BME280;8375;33.594;-117.718;2023-09-07T01:57:39;100016.75;;;23.66;70.97
16525;BME280;8375;33.594;-117.718;2023-09-07T02:00:08;100015.53;;;23.62;71.02
16525;BME280;8375;33.594;-117.718;2023-09-07T02:02:37;100016.59;;;23.47;71.27
16525;BME280;8375;33.594;-117.718;2023-09-07T02:05:06;100011.13;;;23.42;71.37
16525;BME280;8375;33.594;-117.718;2023-09-07T02:07:36;100013.56;;;23.30;71.65
16525;BME280;8375;33.594;-117.718;2023-09-07T02:10:05;100012.75;;;23.23;71.58
16525;BME280;8375;33.594;-117.718;2023-09-07T02:12:36;100018.03;;;23.23;72.26
16525;BME280;8375;33.594;-117.718;2023-09-07T02:15:05;100017.44;;;23.21;72.28
16525;BME280;8375;33.594;-117.718;2023-09-07T02:17:34;100018.88;;;23.10;72.46
16525;BME280;8375;33.594;-117.718;2023-09-07T02:20:03;100020.13;;;23.00;72.91
16525;BME280;8375;33.594;-117.718;2023-09-07T02:22:37;100020.09;;;22.94;73.26
16525;BME280;8375;33.594;-117.718;2023-09-07T02:25:06;100018.50;;;22.86;73.44
16525;BME280;8375;33.594;-117.718;2023-09-07T02:27:36;100026.63;;;22.78;73.92
16525;BME280;8375;33.594;-117.718;2023-09-07T02:30:06;100024.78;;;22.78;74.09
16525;BME280;8375;33.594;-117.718;2023-09-07T02:32:35;100031.50;;;22.67;74.53
16525;BME280;8375;33.594;-117.718;2023-09-07T02:35:04;100032.09;;;22.56;74.80
16525;BME280;8375;33.594;-117.718;2023-09-07T02:37:33;100037.78;;;22.53;75.01
16525;BME280;8375;33.594;-117.718;2023-09-07T02:40:01;100028.81;;;22.47;75.35
16525;BME280;8375;33.594;-117.718;2023-09-07T02:42:33;100037.91;;;22.38;75.18
16525;BME280;8375;33.594;-117.718;2023-09-07T02:45:04;100042.59;;;22.29;76.02
16525;BME280;8375;33.594;-117.718;2023-09-07T02:47:33;100045.19;;;22.16;76.33
16525;BME280;8375;33.594;-117.718;2023-09-07T02:50:02;100038.28;;;22.15;76.78
16525;BME280;8375;33.594;-117.718;2023-09-07T02:52:31;100047.84;;;22.16;76.69
16525;BME280;8375;33.594;-117.718;2023-09-07T02:55:00;100060.84;;;22.10;77.08
16525;BME280;8375;33.594;-117.718;2023-09-07T02:57:29;100068.75;;;22.10;77.04
16525;BME280;8375;33.594;-117.718;2023-09-07T02:59:58;100067.53;;;22.06;77.38
16525;BME280;8375;33.594;-117.718;2023-09-07T03:02:29;100077.41;;;21.91;77.90
16525;BME280;8375;33.594;-117.718;2023-09-07T03:04:58;100073.09;;;21.83;78.45
16525;BME280;8375;33.594;-117.718;2023-09-07T03:07:29;100080.59;;;21.79;78.74
16525;BME280;8375;33.594;-117.718;2023-09-07T03:09:58;100080.56;;;21.73;79.53
16525;BME280;8375;33.594;-117.718;2023-09-07T03:12:27;100081.56;;;21.72;79.64
16525;BME280;8375;33.594;-117.718;2023-09-07T03:14:56;100087.72;;;21.79;79.79
16525;BME280;8375;33.594;-117.718;2023-09-07T03:17:25;100085.84;;;21.73;79.83
16525;BME280;8375;33.594;-117.718;2023-09-07T03:19:56;100088.84;;;21.63;80.09
16525;BME280;8375;33.594;-117.718;2023-09-07T03:22:24;100091.09;;;21.66;79.84
16525;BME280;8375;33.594;-117.718;2023-09-07T03:24:54;100106.75;;;21.46;80.46
16525;BME280;8375;33.594;-117.718;2023-09-07T03:27:23;100104.19;;;21.52;80.68
16525;BME280;8375;33.594;-117.718;2023-09-07T03:29:52;100101.06;;;21.42;80.77
16525;BME280;8375;33.594;-117.718;2023-09-07T03:32:21;100101.25;;;21.40;81.23
16525;BME280;8375;33.594;-117.718;2023-09-07T03:34:50;100107.13;;;21.36;81.29
16525;BME280;8375;33.594;-117.718;2023-09-07T03:37:20;100113.41;;;21.35;81.28
16525;BME280;8375;33.594;-117.718;2023-09-07T03:39:48;100113.72;;;21.25;81.50
16525;BME280;8375;33.594;-117.718;2023-09-07T03:42:18;100112.00;;;21.17;81.91
16525;BME280;8375;33.594;-117.718;2023-09-07T03:44:46;100115.78;;;21.08;82.41
16525;BME280;8375;33.594;-117.718;2023-09-07T03:47:15;100110.88;;;21.05;82.49
16525;BME280;8375;33.594;-117.718;2023-09-07T03:49:44;100117.69;;;20.92;83.09
16525;BME280;8375;33.594;-117.718;2023-09-07T03:52:12;100111.53;;;20.85;83.35
16525;BME280;8375;33.594;-117.718;2023-09-07T03:54:43;100120.81;;;20.81;83.82
16525;BME280;8375;33.594;-117.718;2023-09-07T03:57:12;100119.91;;;20.74;84.54
16525;BME280;8375;33.594;-117.718;2023-09-07T03:59:40;100117.38;;;20.65;85.35
16525;BME280;8375;33.594;-117.718;2023-09-07T04:02:09;100122.59;;;20.59;85.71
16525;BME280;8375;33.594;-117.718;2023-09-07T04:04:38;100120.50;;;20.54;86.55
16525;BME280;8375;33.594;-117.718;2023-09-07T04:07:06;100126.34;;;20.49;86.65
16525;BME280;8375;33.594;-117.718;2023-09-07T04:09:35;100127.50;;;20.47;87.33
16525;BME280;8375;33.594;-117.718;2023-09-07T04:12:06;100132.78;;;20.47;87.49
16525;BME280;8375;33.594;-117.718;2023-09-07T04:14:35;100136.63;;;20.44;87.75
16525;BME280;8375;33.594;-117.718;2023-09-07T04:17:04;100131.72;;;20.41;87.97
16525;BME280;8375;33.594;-117.718;2023-09-07T04:19:33;100135.53;;;20.38;88.75
16525;BME280;8375;33.594;-117.718;2023-09-07T04:22:02;100132.81;;;20.32;89.14
16525;BME280;8375;33.594;-117.718;2023-09-07T04:24:31;100135.81;;;20.29;89.26
16525;BME280;8375;33.594;-117.718;2023-09-07T04:26:59;100141.47;;;20.26;89.58
16525;BME280;8375;33.594;-117.718;2023-09-07T04:29:30;100140.81;;;20.23;89.66
16525;BME280;8375;33.594;-117.718;2023-09-07T04:31:59;100136.72;;;20.21;89.57
16525;BME280;8375;33.594;-117.718;2023-09-07T04:34:27;100134.81;;;20.15;90.31
16525;BME280;8375;33.594;-117.718;2023-09-07T04:36:56;100135.81;;;20.14;90.32
16525;BME280;8375;33.594;-117.718;2023-09-07T04:39:25;100130.28;;;20.08;90.67
16525;BME280;8375;33.594;-117.718;2023-09-07T04:41:53;100134.28;;;20.04;91.28
16525;BME280;8375;33.594;-117.718;2023-09-07T04:44:22;100133.91;;;20.07;90.86
16525;BME280;8375;33.594;-117.718;2023-09-07T04:46:55;100136.47;;;20.01;90.83
16525;BME280;8375;33.594;-117.718;2023-09-07T04:49:24;100136.66;;;19.99;90.81
16525;BME280;8375;33.594;-117.718;2023-09-07T04:51:53;100135.38;;;19.95;90.82
16525;BME280;8375;33.594;-117.718;2023-09-07T04:54:22;100139.69;;;19.88;90.98
16525;BME280;8375;33.594;-117.718;2023-09-07T04:56:51;100131.53;;;19.83;90.92
16525;BME280;8375;33.594;-117.718;2023-09-07T04:59:18;100133.50;;;19.81;90.87
16525;BME280;8375;33.594;-117.718;2023-09-07T05:01:47;100135.72;;;19.77;91.23
16525;BME280;8375;33.594;-117.718;2023-09-07T05:04:17;100132.78;;;19.72;91.64
16525;BME280;8375;33.594;-117.718;2023-09-07T05:06:46;100133.78;;;19.71;91.82
16525;BME280;8375;33.594;-117.718;2023-09-07T05:09:15;100132.50;;;19.67;92.00
16525;BME280;8375;33.594;-117.718;2023-09-07T05:11:44;100131.25;;;19.62;92.05
16525;BME280;8375;33.594;-117.718;2023-09-07T05:14:12;100126.78;;;19.63;92.29
16525;BME280;8375;33.594;-117.718;2023-09-07T05:16:43;100130.97;;;19.57;92.54
16525;BME280;8375;33.594;-117.718;2023-09-07T05:19:11;100120.94;;;19.53;94.19
16525;BME280;8375;33.594;-117.718;2023-09-07T05:21:42;100125.22;;;19.54;94.17
16525;BME280;8375;33.594;-117.718;2023-09-07T05:24:13;100127.84;;;19.54;94.71
16525;BME280;8375;33.594;-117.718;2023-09-07T05:26:42;100127.56;;;19.48;94.74
16525;BME280;8375;33.594;-117.718;2023-09-07T05:29:12;100130.75;;;19.44;94.68
16525;BME280;8375;33.594;-117.718;2023-09-07T05:31:41;100132.75;;;19.42;94.40
16525;BME280;8375;33.594;-117.718;2023-09-07T05:34:09;100127.56;;;19.33;94.53
16525;BME280;8375;33.594;-117.718;2023-09-07T05:36:38;100122.16;;;19.27;94.92
16525;BME280;8375;33.594;-117.718;2023-09-07T05:39:09;100130.41;;;19.24;95.66
16525;BME280;8375;33.594;-117.718;2023-09-07T05:41:37;100127.13;;;19.22;96.08
16525;BME280;8375;33.594;-117.718;2023-09-07T05:44:06;100134.38;;;19.19;96.03
16525;BME280;8375;33.594;-117.718;2023-09-07T05:46:35;100129.66;;;19.15;96.31
16525;BME280;8375;33.594;-117.718;2023-09-07T05:49:04;100134.09;;;19.14;96.27
16525;BME280;8375;33.594;-117.718;2023-09-07T05:51:32;100132.66;;;19.12;96.22
16525;BME280;8375;33.594;-117.718;2023-09-07T05:54:02;100140.25;;;19.07;96.60
16525;BME280;8375;33.594;-117.718;2023-09-07T05:56:32;100136.63;;;19.08;96.33
16525;BME280;8375;33.594;-117.718;2023-09-07T05:59:01;100137.13;;;19.03;96.65
16525;BME280;8375;33.594;-117.718;2023-09-07T06:01:30;100138.47;;;18.99;97.13
16525;BME280;8375;33.594;-117.718;2023-09-07T06:03:59;100140.47;;;18.97;97.95
16525;BME280;8375;33.594;-117.718;2023-09-07T06:06:29;100136.34;;;18.94;98.46
16525;BME280;8375;33.594;-117.718;2023-09-07T06:08:57;100133.53;;;18.96;98.83
16525;BME280;8375;33.594;-117.718;2023-09-07T06:11:26;100145.06;;;18.95;98.61
16525;BME280;8375;33.594;-117.718;2023-09-07T06:13:58;100150.00;;;18.98;97.78
16525;BME280;8375;33.594;-117.718;2023-09-07T06:16:27;100139.97;;;18.93;97.20
16525;BME280;8375;33.594;-117.718;2023-09-07T06:18:56;100133.25;;;18.90;96.74
16525;BME280;8375;33.594;-117.718;2023-09-07T06:21:24;100126.41;;;18.81;97.39
16525;BME280;8375;33.594;-117.718;2023-09-07T06:23:54;100125.47;;;18.74;97.27
16525;BME280;8375;33.594;-117.718;2023-09-07T06:26:22;100131.91;;;18.71;97.72
16525;BME280;8375;33.594;-117.718;2023-09-07T06:28:51;100136.66;;;18.68;97.82
16525;BME280;8375;33.594;-117.718;2023-09-07T06:31:22;100142.28;;;18.65;97.96
16525;BME280;8375;33.594;-117.718;2023-09-07T06:33:50;100141.47;;;18.64;97.37
16525;BME280;8375;33.594;-117.718;2023-09-07T06:36:19;100138.69;;;18.57;97.79
16525;BME280;8375;33.594;-117.718;2023-09-07T06:38:48;100146.75;;;18.56;98.21
16525;BME280;8375;33.594;-117.718;2023-09-07T06:41:17;100146.28;;;18.52;98.54
16525;BME280;8375;33.594;-117.718;2023-09-07T06:43:46;100142.16;;;18.50;98.29
16525;BME280;8375;33.594;-117.718;2023-09-07T06:46:14;100146.63;;;18.49;97.92
16525;BME280;8375;33.594;-117.718;2023-09-07T06:48:45;100144.47;;;18.44;98.57
16525;BME280;8375;33.594;-117.718;2023-09-07T06:51:15;100141.06;;;18.44;98.67
16525;BME280;8375;33.594;-117.718;2023-09-07T06:53:43;100141.41;;;18.41;98.53
16525;BME280;8375;33.594;-117.718;2023-09-07T06:56:12;100145.00;;;18.40;98.52
16525;BME280;8375;33.594;-117.718;2023-09-07T06:58:41;100145.00;;;18.40;98.62
16525;BME280;8375;33.594;-117.718;2023-09-07T07:01:09;100137.47;;;18.37;98.43
16525;BME280;8375;33.594;-117.718;2023-09-07T07:03:38;100151.59;;;18.36;98.99
16525;BME280;8375;33.594;-117.718;2023-09-07T07:06:08;100141.75;;;18.38;100.00
16525;BME280;8375;33.594;-117.718;2023-09-07T07:08:37;100144.38;;;18.38;100.00
16525;BME280;8375;33.594;-117.718;2023-09-07T07:11:06;100148.44;;;18.40;100.00
16525;BME280;8375;33.594;-117.718;2023-09-07T07:13:34;100151.94;;;18.32;100.00
16525;BME280;8375;33.594;-117.718;2023-09-07T07:16:04;100149.81;;;18.28;99.95
16525;BME280;8375;33.594;-117.718;2023-09-07T07:18:32;100157.34;;;18.31;100.00
16525;BME280;8375;33.594;-117.718;2023-09-07T07:21:01;100159.16;;;18.30;100.00
16525;BME280;8375;33.594;-117.718;2023-09-07T07:23:31;100166.75;;;18.25;100.00
16525;BME280;8375;33.594;-117.718;2023-09-07T07:26:00;100164.44;;;18.22;100.00
16525;BME280;8375;33.594;-117.718;2023-09-07T07:28:29;100160.66;;;18.25;100.00
16525;BME280;8375;33.594;-117.718;2023-09-07T07:30:59;100162.50;;;18.16;100.00
16525;BME280;8375;33.594;-117.718;2023-09-07T07:33:35;100165.94;;;18.16;100.00
16525;BME280;8375;33.594;-117.718;2023-09-07T07:36:04;100158.88;;;18.17;100.00
16525;BME280;8375;33.594;-117.718;2023-09-07T07:38:34;100159.56;;;18.11;100.00
16525;BME280;8375;33.594;-117.718;2023-09-07T07:41:03;100154.81;;;18.06;100.00
16525;BME280;8375;33.594;-117.718;2023-09-07T07:43:33;100152.50;;;18.03;100.00
16525;BME280;8375;33.594;-117.718;2023-09-07T07:46:01;100158.25;;;18.07;100.00
16525;BME280;8375;33.594;-117.718;2023-09-07T07:48:30;100149.22;;;18.01;100.00
16525;BME280;8375;33.594;-117.718;2023-09-07T07:51:03;100147.25;;;17.95;100.00
16525;BME280;8375;33.594;-117.718;2023-09-07T07:53:34;100142.50;;;17.90;100.00
16525;BME280;8375;33.594;-117.718;2023-09-07T07:56:02;100142.97;;;17.94;100.00
16525;BME280;8375;33.594;-117.718;2023-09-07T07:58:31;100141.53;;;17.91;100.00
16525;BME280;8375;33.594;-117.718;2023-09-07T08:01:00;100133.81;;;17.89;100.00
16525;BME280;8375;33.594;-117.718;2023-09-07T08:03:28;100133.66;;;17.91;100.00
16525;BME280;8375;33.594;-117.718;2023-09-07T08:05:57;100122.50;;;17.89;100.00
16525;BME280;8375;33.594;-117.718;2023-09-07T08:08:26;100130.38;;;17.89;100.00
16525;BME280;8375;33.594;-117.718;2023-09-07T08:10:56;100127.44;;;17.84;100.00
16525;BME280;8375;33.594;-117.718;2023-09-07T08:13:26;100129.88;;;17.85;100.00
16525;BME280;8375;33.594;-117.718;2023-09-07T08:15:55;100129.72;;;17.87;100.00
16525;BME280;8375;33.594;-117.718;2023-09-07T08:18:24;100131.34;;;17.88;100.00
16525;BME280;8375;33.594;-117.718;2023-09-07T08:20:52;100126.94;;;17.80;100.00
16525;BME280;8375;33.594;-117.718;2023-09-07T08:23:21;100121.03;;;17.78;100.00
16525;BME280;8375;33.594;-117.718;2023-09-07T08:25:51;100115.97;;;17.77;100.00
16525;BME280;8375;33.594;-117.718;2023-09-07T08:28:22;100109.41;;;17.72;100.00
16525;BME280;8375;33.594;-117.718;2023-09-07T08:30:52;100114.66;;;17.72;100.00
16525;BME280;8375;33.594;-117.718;2023-09-07T08:33:21;100106.63;;;17.66;100.00
16525;BME280;8375;33.594;-117.718;2023-09-07T08:35:56;100106.78;;;17.64;100.00
16525;BME280;8375;33.594;-117.718;2023-09-07T08:38:27;100099.72;;;17.65;100.00
16525;BME280;8375;33.594;-117.718;2023-09-07T08:41:01;100099.72;;;17.65;100.00
16525;BME280;8375;33.594;-117.718;2023-09-07T08:43:35;100095.97;;;17.59;100.00
16525;BME280;8375;33.594;-117.718;2023-09-07T08:46:14;100100.06;;;17.53;100.00
16525;BME280;8375;33.594;-117.718;2023-09-07T08:48:43;100098.09;;;17.55;100.00
16525;BME280;8375;33.594;-117.718;2023-09-07T08:51:13;100096.97;;;17.50;100.00
16525;BME280;8375;33.594;-117.718;2023-09-07T08:53:43;100090.25;;;17.47;100.00
16525;BME280;8375;33.594;-117.718;2023-09-07T08:56:13;100097.31;;;17.47;100.00
16525;BME280;8375;33.594;-117.718;2023-09-07T08:58:43;100090.09;;;17.49;100.00
16525;BME280;8375;33.594;-117.718;2023-09-07T09:01:14;100085.97;;;17.46;100.00
16525;BME280;8375;33.594;-117.718;2023-09-07T09:03:43;100088.78;;;17.44;100.00
16525;BME280;8375;33.594;-117.718;2023-09-07T09:06:12;100088.59;;;17.46;100.00
16525;BME280;8375;33.594;-117.718;2023-09-07T09:08:43;100093.69;;;17.48;100.00
16525;BME280;8375;33.594;-117.718;2023-09-07T09:11:12;100099.44;;;17.43;100.00
16525;BME280;8375;33.594;-117.718;2023-09-07T09:13:42;100095.16;;;17.42;100.00
16525;BME280;8375;33.594;-117.718;2023-09-07T09:16:11;100094.03;;;17.36;100.00
16525;BME280;8375;33.594;-117.718;2023-09-07T09:18:48;100083.22;;;17.31;100.00
16525;BME280;8375;33.594;-117.718;2023-09-07T09:21:19;100075.00;;;17.34;100.00
16525;BME280;8375;33.594;-117.718;2023-09-07T09:23:49;100085.19;;;17.29;100.00
16525;BME280;8375;33.594;-117.718;2023-09-07T09:26:18;100098.44;;;17.36;100.00
16525;BME280;8375;33.594;-117.718;2023-09-07T09:28:48;100099.09;;;17.29;100.00
16525;BME280;8375;33.594;-117.718;2023-09-07T09:31:19;100106.00;;;17.30;100.00
16525;BME280;8375;33.594;-117.718;2023-09-07T09:33:49;100109.13;;;17.26;100.00
16525;BME280;8375;33.594;-117.718;2023-09-07T09:36:18;100109.78;;;17.20;100.00
16525;BME280;8375;33.594;-117.718;2023-09-07T09:38:48;100108.13;;;17.19;100.00
16525;BME280;8375;33.594;-117.718;2023-09-07T09:41:19;100110.09;;;17.17;100.00
16525;BME280;8375;33.594;-117.718;2023-09-07T09:43:50;100106.31;;;17.11;100.00
16525;BME280;8375;33.594;-117.718;2023-09-07T09:46:22;100108.28;;;17.09;100.00
16525;BME280;8375;33.594;-117.718;2023-09-07T09:48:52;100099.59;;;17.08;100.00
16525;BME280;8375;33.594;-117.718;2023-09-07T09:51:23;100095.16;;;17.09;100.00
16525;BME280;8375;33.594;-117.718;2023-09-07T09:53:54;100090.09;;;17.07;100.00
16525;BME280;8375;33.594;-117.718;2023-09-07T09:56:23;100092.41;;;17.02;100.00
16525;BME280;8375;33.594;-117.718;2023-09-07T09:58:54;100090.75;;;17.01;100.00
16525;BME280;8375;33.594;-117.718;2023-09-07T10:01:23;100092.72;;;16.99;100.00
16525;BME280;8375;33.594;-117.718;2023-09-07T10:03:53;100094.19;;;17.01;100.00
16525;BME280;8375;33.594;-117.718;2023-09-07T10:06:24;100103.22;;;16.99;100.00
16525;BME280;8375;33.594;-117.718;2023-09-07T10:08:55;100102.56;;;16.97;100.00
16525;BME280;8375;33.594;-117.718;2023-09-07T10:11:33;100105.47;;;16.94;100.00
16525;BME280;8375;33.594;-117.718;2023-09-07T10:14:06;100098.91;;;16.90;100.00
16525;BME280;8375;33.594;-117.718;2023-09-07T10:16:45;100094.00;;;16.86;100.00
16525;BME280;8375;33.594;-117.718;2023-09-07T10:19:18;100096.09;;;16.83;100.00
16525;BME280;8375;33.594;-117.718;2023-09-07T10:21:47;100080.53;;;16.81;100.00
16525;BME280;8375;33.594;-117.718;2023-09-07T10:24:25;100076.94;;;16.74;100.00
16525;BME280;8375;33.594;-117.718;2023-09-07T10:27:01;100085.59;;;16.75;100.00
16525;BME280;8375;33.594;-117.718;2023-09-07T10:29:43;100078.56;;;16.75;100.00
16525;BME280;8375;33.594;-117.718;2023-09-07T10:32:13;100081.50;;;16.72;100.00
16525;BME280;8375;33.594;-117.718;2023-09-07T10:34:43;100088.06;;;16.68;100.00
16525;BME280;8375;33.594;-117.718;2023-09-07T10:37:12;100077.56;;;16.68;100.00
16525;BME280;8375;33.594;-117.718;2023-09-07T10:39:43;100080.34;;;16.66;100.00
16525;BME280;8375;33.594;-117.718;2023-09-07T10:42:20;100080.00;;;16.61;100.00
16525;BME280;8375;33.594;-117.718;2023-09-07T10:44:52;100071.34;;;16.61;100.00
16525;BME280;8375;33.594;-117.718;2023-09-07T10:47:21;100076.25;;;16.64;100.00
16525;BME280;8375;33.594;-117.718;2023-09-07T10:49:50;100073.63;;;16.64;100.00
16525;BME280;8375;33.594;-117.718;2023-09-07T10:52:18;100074.59;;;16.54;100.00
16525;BME280;8375;33.594;-117.718;2023-09-07T10:54:56;100071.63;;;16.49;100.00
16525;BME280;8375;33.594;-117.718;2023-09-07T10:57:25;100056.25;;;16.46;100.00
16525;BME280;8375;33.594;-117.718;2023-09-07T10:59:55;100067.72;;;16.53;100.00
16525;BME280;8375;33.594;-117.718;2023-09-07T11:02:24;100063.28;;;16.54;100.00
16525;BME280;8375;33.594;-117.718;2023-09-07T11:04:53;100067.06;;;16.51;100.00
16525;BME280;8375;33.594;-117.718;2023-09-07T11:07:21;100062.63;;;16.52;100.00
16525;BME280;8375;33.594;-117.718;2023-09-07T11:09:52;100065.75;;;16.47;100.00
16525;BME280;8375;33.594;-117.718;2023-09-07T11:12:21;100055.25;;;16.47;100.00
16525;BME280;8375;33.594;-117.718;2023-09-07T11:14:50;100057.03;;;16.47;100.00
16525;BME280;8375;33.594;-117.718;2023-09-07T11:17:26;100058.19;;;16.44;100.00
16525;BME280;8375;33.594;-117.718;2023-09-07T11:19:56;100051.13;;;16.36;100.00
16525;BME280;8375;33.594;-117.718;2023-09-07T11:22:25;100046.22;;;16.33;100.00
16525;BME280;8375;33.594;-117.718;2023-09-07T11:24:54;100044.56;;;16.32;100.00
16525;BME280;8375;33.594;-117.718;2023-09-07T11:27:23;100048.16;;;16.31;100.00
16525;BME280;8375;33.594;-117.718;2023-09-07T11:29:53;100049.63;;;16.25;100.00
16525;BME280;8375;33.594;-117.718;2023-09-07T11:32:24;100041.78;;;16.25;100.00
16525;BME280;8375;33.594;-117.718;2023-09-07T11:34:52;100048.00;;;16.24;100.00
16525;BME280;8375;33.594;-117.718;2023-09-07T11:37:24;100044.41;;;16.25;100.00
16525;BME280;8375;33.594;-117.718;2023-09-07T11:39:53;100049.31;;;16.28;100.00
16525;BME280;8375;33.594;-117.718;2023-09-07T11:42:22;100049.94;;;16.22;100.00
16525;BME280;8375;33.594;-117.718;2023-09-07T11:44:51;100052.22;;;16.17;100.00
16525;BME280;8375;33.594;-117.718;2023-09-07T11:47:20;100047.31;;;16.14;100.00
16525;BME280;8375;33.594;-117.718;2023-09-07T11:49:50;100040.44;;;16.13;100.00
16525;BME280;8375;33.594;-117.718;2023-09-07T11:52:19;100047.78;;;16.18;100.00
16525;BME280;8375;33.594;-117.718;2023-09-07T11:54:48;100042.72;;;16.16;100.00
16525;BME280;8375;33.594;-117.718;2023-09-07T11:57:16;100042.69;;;16.08;100.00
16525;BME280;8375;33.594;-117.718;2023-09-07T11:59:45;100045.78;;;16.03;100.00
16525;BME280;8375;33.594;-117.718;2023-09-07T12:02:17;100041.69;;;16.01;100.00
16525;BME280;8375;33.594;-117.718;2023-09-07T12:04:49;100049.06;;;16.05;100.00
16525;BME280;8375;33.594;-117.718;2023-09-07T12:07:18;100044.31;;;16.01;100.00
16525;BME280;8375;33.594;-117.718;2023-09-07T12:09:47;100045.59;;;15.96;100.00
16525;BME280;8375;33.594;-117.718;2023-09-07T12:12:17;100047.06;;;15.99;100.00
16525;BME280;8375;33.594;-117.718;2023-09-07T12:14:46;100045.28;;;16.00;100.00
16525;BME280;8375;33.594;-117.718;2023-09-07T12:17:14;100045.25;;;15.91;100.00
16525;BME280;8375;33.594;-117.718;2023-09-07T12:19:43;100043.75;;;15.89;100.00
16525;BME280;8375;33.594;-117.718;2023-09-07T12:22:14;100044.09;;;15.94;100.00
16525;BME280;8375;33.594;-117.718;2023-09-07T12:24:43;100053.13;;;16.00;100.00
16525;BME280;8375;33.594;-117.718;2023-09-07T12:27:12;100047.03;;;15.91;100.00
16525;BME280;8375;33.594;-117.718;2023-09-07T12:29:40;100058.91;;;15.85;100.00
16525;BME280;8375;33.594;-117.718;2023-09-07T12:32:09;100059.22;;;15.82;100.00
16525;BME280;8375;33.594;-117.718;2023-09-07T12:34:38;100064.75;;;15.79;100.00
16525;BME280;8375;33.594;-117.718;2023-09-07T12:37:07;100059.47;;;15.89;100.00